Pagina principală
METAR-TAF:

METAR-TAF

Aeroporturi :

Plovdiv, Bulgaria

Latitudine: 42-08N, longitudine: 024-45E, elevație: 179 m

Observații meteo curente

Raportul a fost făcut în urmă cu 29 de minute, la 06:30 UTC
Vânt 16 kt de la Vest
Temperatură 26°C
Umiditate 51%
Presiune 1012 hPa
Vizibilitate de 10 km sau mai mult

METAR: LBPD 160630Z AUTO 28016KT 9999 NCD 26/15 Q1012 NOSIG

Ora: 09:59 (06:59 UTC)

Prognoză

Raportul a fost făcut în urmă cu 1 oră și 59 de minute, la 05:00 UTC
Prognoză valabilă de la 16 ora 06 UTC la 17 ora 06 UTC
Vânt 14 kt de la Vest/Nord-vest cu rafale de până la 24 kt
Vizibilitate de 10 km sau mai mult
nu există nori sub 1.500 m și nici cumulonimbus
Devenind
de la 16 ora 18 UTC la 16 ora 20 UTC
Vânt 10 kt de la Vest/Sud-vest
Devenind
de la 16 ora 22 UTC la 16 ora 24 UTC
Vânt 4 kt din direcții variabile

TAF: LBPD 160500Z 1606/1706 29014G24KT CAVOK BECMG 1618/1620 24010KT BECMG 1622/1624 VRB04KT

Observații și prognoze meteo pentru peste 4.000 de aeroporturi (rapoarte METAR și TAF).

Stațiile disponibile sunt reprezentate pe hartă prin puncte galbene și roșii.

Țineți indicatorul mouse-ului pe punctul dorit pentru a vedea denumirea stației.

Apoi, faceți clic pentru a vedea observațiile și prognozele meteorologice.

Pentru a schimba harta: Pentru mărire, faceți clic pe butoanele verzi cu cruce neagră; pentru micșorare, pe butonul verde cu o liniuță; pentru hărți învecinate, pe săgețile verzi.


METAR-TAF: